Terminal Aerodrome Forecast
Issued by NWS

Home | Current Version | Previous Version | Text Only | Print | Product List | Glossary On
Versions: 1 2 3 4 5 6 7 8 9 10 11 12 13 14 15
000
FTAK31 PANC 220522
TAFADU
TAF
PADU 220522Z 2206/2306 VRB06KT P6SM BKN035
     FM221000 18011KT P6SM SCT250
     FM221300 18018G28KT P6SM VCSH SCT030 BKN080
     FM221800 22022G30KT 4SM -RA BR BKN015
     FM230000 28025G35KT P6SM BKN040=

USA.gov is the U.S. government's official web portal to all federal, state and local government web resources and services.